Time;durP1;ratioP1;P1;durP2;ratioP2;P2;SDS_P1;SDS_P2;PMS_P1;PMS_P2;Temp;Humidity;BMP_temperature;BMP_pressure;BME280_temperature;BME280_humidity;BME280_pressure;Samples;Min_cycle;Max_cycle;Signal;HPM_P1;HPM_P2
2023/01/08 00:01:26;;;;;;;6.80;3.15;;;9.40;99.90;;;;;;5045372;28;20046;-72
2023/01/08 00:03:52;;;;;;;6.20;2.60;;;9.40;99.90;;;;;;5080119;28;20044;-71
2023/01/08 00:06:24;;;;;;;8.25;2.92;;;9.40;99.90;;;;;;5070375;28;20417;-71
2023/01/08 00:08:50;;;;;;;5.95;2.88;;;9.40;99.90;;;;;;5063747;28;20051;-71
2023/01/08 00:11:16;;;;;;;8.75;3.35;;;9.40;99.90;;;;;;5039827;28;20040;-71
2023/01/08 00:13:42;;;;;;;5.95;3.05;;;9.50;99.90;;;;;;5061963;28;20060;-71
2023/01/08 00:16:11;;;;;;;5.97;3.10;;;9.50;99.90;;;;;;5074235;28;20060;-71
2023/01/08 00:18:37;;;;;;;11.85;3.28;;;9.50;99.90;;;;;;5047730;28;20048;-71
2023/01/08 00:21:03;;;;;;;7.85;2.95;;;9.50;99.90;;;;;;5056067;28;20048;-71
2023/01/08 00:23:30;;;;;;;5.93;3.10;;;9.50;99.90;;;;;;5076068;28;20039;-71
2023/01/08 00:25:55;;;;;;;6.55;3.53;;;9.50;99.90;;;;;;5059993;28;20040;-70
2023/01/08 00:28:21;;;;;;;6.68;3.15;;;9.60;99.90;;;;;;5076387;28;20121;-72
2023/01/08 00:30:48;;;;;;;6.63;3.05;;;9.60;99.90;;;;;;5040570;28;20143;-72
2023/01/08 00:33:14;;;;;;;6.50;2.83;;;9.60;99.90;;;;;;5053984;28;20060;-73
2023/01/08 00:35:40;;;;;;;6.55;2.95;;;9.60;99.90;;;;;;5054495;28;20553;-73
2023/01/08 00:38:06;;;;;;;6.38;2.85;;;9.60;99.90;;;;;;5060365;28;20048;-73
2023/01/08 00:40:33;;;;;;;6.30;2.80;;;9.60;99.90;;;;;;5082398;28;20062;-74
2023/01/08 00:42:59;;;;;;;6.70;3.10;;;9.60;99.90;;;;;;5063780;28;21365;-73
2023/01/08 00:45:28;;;;;;;5.93;2.70;;;9.60;99.90;;;;;;5049232;28;20617;-73
2023/01/08 00:47:53;;;;;;;7.10;2.72;;;9.60;99.90;;;;;;5058122;28;20048;-71
2023/01/08 00:50:19;;;;;;;6.75;2.92;;;9.60;99.90;;;;;;5046269;28;20046;-71
2023/01/08 00:52:45;;;;;;;7.50;2.83;;;9.60;99.90;;;;;;5039188;28;20145;-72
2023/01/08 00:55:11;;;;;;;7.70;3.15;;;9.60;99.90;;;;;;5076910;28;20055;-72
2023/01/08 00:57:38;;;;;;;6.70;2.55;;;9.50;99.90;;;;;;5041317;28;20048;-73
2023/01/08 01:00:07;;;;;;;6.63;2.63;;;9.60;99.90;;;;;;5038429;28;20094;-73
2023/01/08 01:02:37;;;;;;;7.45;3.00;;;9.60;99.90;;;;;;5052559;28;20036;-71
2023/01/08 01:05:04;;;;;;;5.88;2.53;;;9.60;99.90;;;;;;5035754;28;20146;-72
2023/01/08 01:07:30;;;;;;;8.90;3.10;;;9.50;99.90;;;;;;5072935;28;20039;-72
2023/01/08 01:09:56;;;;;;;7.40;3.28;;;9.60;99.90;;;;;;5052742;28;20056;-71
2023/01/08 01:12:25;;;;;;;6.32;2.63;;;9.60;99.90;;;;;;5062737;28;20044;-72
2023/01/08 01:14:51;;;;;;;6.10;2.60;;;9.60;99.90;;;;;;5043733;28;20059;-72
2023/01/08 01:17:17;;;;;;;8.30;2.70;;;9.50;99.90;;;;;;5052064;28;20037;-72
2023/01/08 01:19:43;;;;;;;7.75;2.50;;;9.50;99.90;;;;;;5047158;28;20048;-72
2023/01/08 01:22:08;;;;;;;5.93;2.58;;;9.50;99.90;;;;;;5041710;28;20043;-72
2023/01/08 01:24:34;;;;;;;8.15;2.33;;;9.50;99.90;;;;;;5034593;28;20064;-72
2023/01/08 01:27:00;;;;;;;6.32;2.58;;;9.50;99.90;;;;;;5042651;28;20056;-72
2023/01/08 01:29:26;;;;;;;6.00;2.20;;;9.50;99.90;;;;;;5056546;28;20036;-71
2023/01/08 01:31:52;;;;;;;7.13;2.30;;;9.50;99.90;;;;;;5070243;28;20116;-72
2023/01/08 01:34:17;;;;;;;5.57;2.17;;;9.50;99.90;;;;;;5057604;28;20044;-71
2023/01/08 01:36:43;;;;;;;5.80;2.17;;;9.50;99.90;;;;;;5040973;28;20063;-71
2023/01/08 01:39:09;;;;;;;6.00;2.33;;;9.50;99.90;;;;;;5064697;28;20036;-72
2023/01/08 01:41:35;;;;;;;7.90;2.35;;;9.50;99.90;;;;;;5042715;28;20400;-72
2023/01/08 01:44:39;;;;;;;4.97;2.28;;;9.50;99.90;;;;;;5061872;28;20087;-71
2023/01/08 01:47:27;;;;;;;6.85;2.22;;;9.50;99.90;;;;;;5056720;28;20093;-71
2023/01/08 01:50:09;;;;;;;7.22;2.72;;;9.50;99.90;;;;;;5068828;28;20515;-71
2023/01/08 01:52:45;;;;;;;5.55;2.33;;;9.50;99.90;;;;;;5051700;28;20421;-71
2023/01/08 01:55:13;;;;;;;7.53;2.60;;;9.40;99.90;;;;;;5053212;28;20045;-72
2023/01/08 01:57:42;;;;;;;9.60;2.58;;;9.40;99.90;;;;;;5050670;28;20726;-71
2023/01/08 02:00:08;;;;;;;6.80;2.00;;;9.40;99.90;;;;;;5052877;28;20151;-72
2023/01/08 02:02:34;;;;;;;7.63;3.03;;;9.40;99.90;;;;;;5048833;28;20414;-71
2023/01/08 02:05:01;;;;;;;4.53;2.10;;;9.70;99.90;;;;;;5073065;28;20040;-71
2023/01/08 02:07:48;;;;;;;8.40;2.47;;;9.30;99.90;;;;;;5078535;28;20467;-72
2023/01/08 02:10:35;;;;;;;8.25;2.08;;;9.30;99.90;;;;;;5072526;28;20055;-71
2023/01/08 02:13:07;;;;;;;10.27;2.30;;;9.30;99.90;;;;;;5071433;28;20447;-71
2023/01/08 02:15:48;;;;;;;8.85;2.30;;;9.30;99.90;;;;;;5080655;28;20735;-72
2023/01/08 02:18:18;;;;;;;9.77;2.38;;;9.30;99.90;;;;;;5069649;28;20127;-72
2023/01/08 02:21:16;;;;;;;12.88;2.67;;;9.20;99.90;;;;;;5071430;28;20040;-72
2023/01/08 02:23:47;;;;;;;10.95;2.78;;;9.20;99.90;;;;;;5019197;28;20059;-72
2023/01/08 02:26:33;;;;;;;7.75;1.90;;;9.20;99.90;;;;;;5048495;28;20249;-72
2023/01/08 02:29:10;;;;;;;9.52;1.80;;;9.20;99.90;;;;;;5070665;28;20043;-72
2023/01/08 02:31:40;;;;;;;11.65;3.28;;;9.10;99.90;;;;;;5070429;28;20083;-73
2023/01/08 02:34:06;;;;;;;10.20;2.30;;;9.10;99.90;;;;;;5071743;28;20397;-73
2023/01/08 02:36:44;;;;;;;9.32;1.63;;;9.10;99.90;;;;;;5057504;28;20037;-73
2023/01/08 02:39:32;;;;;;;12.95;1.70;;;9.00;99.90;;;;;;5040353;28;20048;-73
2023/01/08 02:42:13;;;;;;;8.75;1.70;;;9.00;99.90;;;;;;5078803;28;20080;-74
2023/01/08 02:45:04;;;;;;;12.13;1.70;;;9.00;99.90;;;;;;5049646;28;20040;-72
2023/01/08 02:47:38;;;;;;;8.85;2.55;;;8.90;99.90;;;;;;5035863;28;20131;-72
2023/01/08 02:50:13;;;;;;;12.10;2.10;;;8.90;99.90;;;;;;5066974;28;20059;-71
2023/01/08 02:53:14;;;;;;;12.45;2.40;;;8.90;99.90;;;;;;5037499;28;20048;-72
2023/01/08 02:55:43;;;;;;;10.88;1.90;;;8.80;99.90;;;;;;5056482;28;20055;-72
2023/01/08 02:58:10;;;;;;;16.60;2.05;;;8.80;99.90;;;;;;5056089;28;20566;-72
2023/01/08 03:00:38;;;;;;;13.90;2.28;;;8.80;99.90;;;;;;5070634;28;20037;-71
2023/01/08 03:03:09;;;;;;;12.10;1.73;;;8.80;99.90;;;;;;5054712;28;20803;-71
2023/01/08 03:05:39;;;;;;;11.25;2.00;;;8.70;99.90;;;;;;5069604;28;20412;-72
2023/01/08 03:08:05;;;;;;;16.63;2.38;;;8.70;99.90;;;;;;5033972;28;20075;-71
2023/01/08 03:10:31;;;;;;;13.23;1.83;;;8.70;99.90;;;;;;5041928;28;20090;-72
2023/01/08 03:13:23;;;;;;;14.48;2.80;;;8.60;99.90;;;;;;5071357;28;20068;-72
2023/01/08 03:15:51;;;;;;;;;;;8.60;99.90;;;;;;5033345;28;20596;-73
2023/01/08 03:18:23;;;;;;;11.90;2.08;;;8.60;99.90;;;;;;5065286;28;19924;-72
2023/01/08 03:20:50;;;;;;;11.88;2.00;;;8.50;99.90;;;;;;5072335;28;20151;-73
2023/01/08 03:23:18;;;;;;;10.23;1.73;;;8.50;99.90;;;;;;5055141;28;20189;-71
2023/01/08 03:25:47;;;;;;;14.88;1.58;;;8.50;99.90;;;;;;5076446;28;20392;-72
2023/01/08 03:28:23;;;;;;;13.57;2.03;;;8.50;99.90;;;;;;5037552;28;20071;-72
2023/01/08 03:30:50;;;;;;;13.82;1.90;;;8.50;99.90;;;;;;5048352;28;20044;-72
2023/01/08 03:33:18;;;;;;;12.50;1.85;;;8.70;99.90;;;;;;5049741;28;20036;-72
2023/01/08 03:35:48;;;;;;;11.40;1.90;;;8.40;99.90;;;;;;5062588;28;20109;-72
2023/01/08 03:38:22;;;;;;;7.30;1.58;;;8.40;99.90;;;;;;5056480;28;20047;-72
2023/01/08 03:40:55;;;;;;;16.92;2.30;;;8.40;99.90;;;;;;5051327;28;20084;-71
2023/01/08 03:43:21;;;;;;;12.75;1.77;;;8.40;99.90;;;;;;5055550;28;20602;-71
2023/01/08 03:45:53;;;;;;;12.75;2.15;;;8.40;99.90;;;;;;5040919;28;20054;-72
2023/01/08 03:48:20;;;;;;;11.77;2.00;;;8.30;99.90;;;;;;5058709;28;20055;-71
2023/01/08 03:50:46;;;;;;;16.00;2.45;;;8.30;99.90;;;;;;5057197;28;20408;-72
2023/01/08 03:53:12;;;;;;;13.43;2.20;;;8.40;99.90;;;;;;5038945;28;20042;-72
2023/01/08 03:55:38;;;;;;;7.25;1.95;;;8.30;99.90;;;;;;5060453;28;20032;-72
2023/01/08 03:58:04;;;;;;;10.93;1.95;;;8.30;99.90;;;;;;5037431;28;20048;-73
2023/01/08 04:00:30;;;;;;;11.90;2.05;;;8.30;99.90;;;;;;5078237;28;20618;-73
2023/01/08 04:02:55;;;;;;;13.70;2.17;;;8.40;99.90;;;;;;5074077;28;20040;-73
2023/01/08 04:05:21;;;;;;;9.48;2.20;;;8.30;99.90;;;;;;5055325;28;20048;-72
2023/01/08 04:07:47;;;;;;;11.65;1.92;;;8.30;99.90;;;;;;5039500;28;20752;-72
2023/01/08 04:10:12;;;;;;;9.13;1.75;;;8.30;99.90;;;;;;5057820;28;20043;-72
2023/01/08 04:12:42;;;;;;;11.63;2.17;;;8.30;99.90;;;;;;5074182;28;20040;-72
2023/01/08 04:15:08;;;;;;;9.43;1.95;;;8.30;99.90;;;;;;5059706;28;20048;-72
2023/01/08 04:17:34;;;;;;;11.57;1.88;;;8.30;99.90;;;;;;5057150;28;20052;-72
2023/01/08 04:20:00;;;;;;;9.32;1.95;;;8.20;99.90;;;;;;5052854;28;20054;-72
2023/01/08 04:22:25;;;;;;;12.63;2.90;;;8.20;99.90;;;;;;5075770;28;20028;-71
2023/01/08 04:24:51;;;;;;;11.15;1.92;;;8.20;99.90;;;;;;5056169;28;20051;-72
2023/01/08 04:27:17;;;;;;;8.60;1.90;;;8.20;99.90;;;;;;5059608;28;20063;-72
2023/01/08 04:29:43;;;;;;;8.35;2.00;;;8.20;99.90;;;;;;5063467;28;20463;-72
2023/01/08 04:32:08;;;;;;;8.25;2.13;;;8.20;99.90;;;;;;5063533;28;20039;-72
2023/01/08 04:34:34;;;;;;;12.90;2.03;;;8.20;99.90;;;;;;5039086;28;20071;-72
2023/01/08 04:37:00;;;;;;;9.93;2.20;;;8.20;99.90;;;;;;5062018;28;20060;-70
2023/01/08 04:39:26;;;;;;;10.85;2.30;;;8.10;99.90;;;;;;5040836;28;20044;-72
2023/01/08 04:41:52;;;;;;;11.27;2.67;;;8.10;99.90;;;;;;5049743;28;20527;-72
2023/01/08 04:44:18;;;;;;;7.35;2.13;;;8.10;99.90;;;;;;5080554;28;20126;-73
2023/01/08 04:46:44;;;;;;;9.95;2.45;;;8.10;99.90;;;;;;5057125;28;20659;-71
2023/01/08 04:49:11;;;;;;;9.13;2.20;;;8.10;99.90;;;;;;5079787;28;20488;-73
2023/01/08 04:51:36;;;;;;;8.45;1.88;;;8.10;99.90;;;;;;5070003;28;20063;-73
2023/01/08 04:54:02;;;;;;;8.15;2.08;;;8.10;99.90;;;;;;5073257;28;20040;-73
2023/01/08 04:56:28;;;;;;;9.52;2.33;;;8.10;99.90;;;;;;5063073;28;20036;-70
2023/01/08 04:58:54;;;;;;;9.65;2.28;;;8.10;99.90;;;;;;5048137;28;20050;-73
2023/01/08 05:01:25;;;;;;;11.50;2.80;;;8.40;99.90;;;;;;5044277;28;20126;-72
2023/01/08 05:03:57;;;;;;;10.65;3.00;;;8.10;99.90;;;;;;5058774;28;20047;-73
2023/01/08 05:06:24;;;;;;;7.60;2.47;;;8.10;99.90;;;;;;5040226;28;20043;-73
2023/01/08 05:08:50;;;;;;;10.75;3.17;;;8.60;99.90;;;;;;5070810;28;20495;-73
2023/01/08 05:11:15;;;;;;;8.35;2.15;;;8.10;99.90;;;;;;5034963;28;20056;-73
2023/01/08 05:13:41;;;;;;;11.15;2.65;;;8.10;99.90;;;;;;5073138;28;20098;-73
2023/01/08 05:16:07;;;;;;;9.13;2.60;;;8.10;99.90;;;;;;5037061;28;20183;-72
2023/01/08 05:18:33;;;;;;;6.57;2.70;;;8.20;99.90;;;;;;5058994;28;20036;-73
2023/01/08 05:21:04;;;;;;;11.27;2.70;;;8.10;99.90;;;;;;5054687;28;20070;-73
2023/01/08 05:23:31;;;;;;;5.45;2.28;;;8.10;99.90;;;;;;5055838;28;20044;-73
2023/01/08 05:26:02;;;;;;;9.13;2.97;;;8.10;99.90;;;;;;5065977;28;20055;-72
2023/01/08 05:28:28;;;;;;;;;;;8.10;99.90;;;;;;5067845;28;20125;-71
2023/01/08 05:30:54;;;;;;;7.25;2.50;;;8.10;99.90;;;;;;5054210;28;19924;-74
2023/01/08 05:33:21;;;;;;;10.07;2.70;;;8.50;99.90;;;;;;5060262;28;20067;-73
2023/01/08 05:35:47;;;;;;;6.55;2.22;;;8.10;99.90;;;;;;5036289;28;20131;-73
2023/01/08 05:38:13;;;;;;;7.90;2.63;;;8.10;99.90;;;;;;5055058;28;20503;-72
2023/01/08 05:40:38;;;;;;;9.23;2.40;;;8.10;99.90;;;;;;5054314;28;20052;-72
2023/01/08 05:43:04;;;;;;;9.65;2.38;;;8.10;99.90;;;;;;5034987;28;20089;-71
2023/01/08 05:45:31;;;;;;;9.80;3.20;;;8.20;99.90;;;;;;5073214;28;20206;-72
2023/01/08 05:47:57;;;;;;;7.40;2.60;;;8.20;99.90;;;;;;5070874;28;20119;-72
2023/01/08 05:50:25;;;;;;;9.35;2.20;;;8.20;99.90;;;;;;5045326;28;20565;-72
2023/01/08 05:52:51;;;;;;;9.63;2.58;;;8.20;99.90;;;;;;5072767;28;20464;-73
2023/01/08 05:55:17;;;;;;;9.02;2.22;;;8.20;99.90;;;;;;5078631;28;20119;-72
2023/01/08 05:57:43;;;;;;;8.90;2.03;;;8.10;99.90;;;;;;5072379;28;20093;-72
2023/01/08 06:00:11;;;;;;;10.57;2.00;;;8.20;99.90;;;;;;5054567;28;20074;-72
2023/01/08 06:02:37;;;;;;;10.80;2.85;;;8.20;99.90;;;;;;5051345;28;20048;-72
2023/01/08 06:05:03;;;;;;;13.20;2.47;;;8.20;99.90;;;;;;5074770;28;20045;-73
2023/01/08 06:07:28;;;;;;;7.45;2.13;;;8.10;99.90;;;;;;5074377;28;20561;-73
2023/01/08 06:09:54;;;;;;;8.95;1.92;;;8.20;99.90;;;;;;5040519;28;20051;-74
2023/01/08 06:12:20;;;;;;;8.05;1.67;;;8.10;99.90;;;;;;5054969;28;20147;-72
2023/01/08 06:14:46;;;;;;;6.60;2.00;;;8.10;99.90;;;;;;5058863;28;20052;-72
2023/01/08 06:17:11;;;;;;;9.25;1.90;;;8.10;99.90;;;;;;5072414;28;20055;-73
2023/01/08 06:19:40;;;;;;;8.30;1.60;;;8.10;99.90;;;;;;5045485;28;20096;-72
2023/01/08 06:22:06;;;;;;;7.78;1.90;;;8.10;99.90;;;;;;5080307;28;20100;-71
2023/01/08 06:24:32;;;;;;;7.20;1.50;;;8.00;99.90;;;;;;5059796;28;20044;-72
2023/01/08 06:26:57;;;;;;;4.55;1.48;;;8.00;99.90;;;;;;5059786;28;20127;-72
2023/01/08 06:29:23;;;;;;;7.72;1.90;;;8.00;99.90;;;;;;5042530;28;20651;-71
2023/01/08 06:31:49;;;;;;;8.13;1.70;;;8.00;99.90;;;;;;5045762;28;20047;-72
2023/01/08 06:34:15;;;;;;;5.07;1.90;;;8.00;99.90;;;;;;5074968;28;20052;-72
2023/01/08 06:36:40;;;;;;;9.40;1.90;;;8.50;99.90;;;;;;5047048;28;20048;-73
2023/01/08 06:39:07;;;;;;;10.40;2.17;;;8.00;99.90;;;;;;5043797;28;20036;-73
2023/01/08 06:41:33;;;;;;;10.55;2.30;;;8.30;99.90;;;;;;5072605;28;20876;-72
2023/01/08 06:43:58;;;;;;;9.60;2.50;;;8.00;99.90;;;;;;5039302;28;20048;-72
2023/01/08 06:46:24;;;;;;;9.30;2.45;;;8.00;99.90;;;;;;5071742;28;20047;-72
2023/01/08 06:48:50;;;;;;;10.15;2.72;;;8.00;99.90;;;;;;5051560;28;20139;-71
2023/01/08 06:51:16;;;;;;;10.25;2.30;;;8.00;99.90;;;;;;5057714;28;20615;-73
2023/01/08 06:53:41;;;;;;;8.52;2.38;;;8.00;99.90;;;;;;5047214;28;20040;-72
2023/01/08 06:56:09;;;;;;;9.20;2.55;;;8.00;99.90;;;;;;5056295;28;20051;-72
2023/01/08 06:58:38;;;;;;;6.60;2.35;;;7.90;99.90;;;;;;5053384;28;20046;-72
2023/01/08 07:01:04;;;;;;;8.68;2.28;;;7.90;99.90;;;;;;5054665;28;20064;-72
2023/01/08 07:03:29;;;;;;;6.60;2.42;;;7.90;99.90;;;;;;5035339;28;20046;-72
2023/01/08 07:05:55;;;;;;;8.02;2.28;;;7.90;99.90;;;;;;5076385;28;20416;-72
2023/01/08 07:08:21;;;;;;;8.85;2.80;;;7.90;99.90;;;;;;5070995;28;20047;-72
2023/01/08 07:10:47;;;;;;;7.13;2.58;;;7.90;99.90;;;;;;5079240;28;20043;-72
2023/01/08 07:13:14;;;;;;;9.32;2.70;;;7.90;99.90;;;;;;5060507;28;20060;-72
2023/01/08 07:15:41;;;;;;;9.75;2.50;;;7.80;99.90;;;;;;5077543;28;20047;-73
2023/01/08 07:18:09;;;;;;;7.70;2.55;;;7.80;99.90;;;;;;5061015;28;20079;-71
2023/01/08 07:20:34;;;;;;;8.35;2.40;;;7.80;99.90;;;;;;5032378;28;20059;-73
2023/01/08 07:23:05;;;;;;;6.70;2.38;;;7.80;99.90;;;;;;5076466;28;20470;-71
2023/01/08 07:25:31;;;;;;;10.45;2.80;;;7.80;99.90;;;;;;5044502;28;20089;-71
2023/01/08 07:27:58;;;;;;;9.57;2.67;;;7.80;99.90;;;;;;5053544;28;20139;-72
2023/01/08 07:30:24;;;;;;;9.32;2.10;;;7.70;99.90;;;;;;5062615;28;20224;-71
2023/01/08 07:32:50;;;;;;;13.00;2.50;;;7.80;99.90;;;;;;5073562;28;20052;-72
2023/01/08 07:35:16;;;;;;;8.27;2.22;;;7.70;99.90;;;;;;5059597;28;20099;-72
2023/01/08 07:37:43;;;;;;;9.98;2.28;;;7.70;99.90;;;;;;5040321;28;20148;-73
2023/01/08 07:40:10;;;;;;;14.05;2.78;;;7.70;99.90;;;;;;5056754;28;20063;-71
2023/01/08 07:42:36;;;;;;;9.38;2.40;;;7.70;99.90;;;;;;5043516;28;20048;-73
2023/01/08 07:45:03;;;;;;;6.80;2.10;;;7.60;99.90;;;;;;5068845;28;20051;-72
2023/01/08 07:47:29;;;;;;;12.55;2.60;;;7.60;99.90;;;;;;5052884;28;20043;-72
2023/01/08 07:49:55;;;;;;;8.90;2.20;;;7.60;99.90;;;;;;5036920;28;20188;-72
2023/01/08 07:52:20;;;;;;;10.65;2.47;;;7.60;99.90;;;;;;5041680;28;20151;-72
2023/01/08 07:54:46;;;;;;;10.57;2.88;;;7.60;99.90;;;;;;5040706;28;20043;-72
2023/01/08 07:57:12;;;;;;;9.73;2.60;;;7.80;99.90;;;;;;5060474;28;20044;-73
2023/01/08 07:59:38;;;;;;;9.27;2.83;;;7.70;99.90;;;;;;5043925;28;20058;-72
2023/01/08 08:02:03;;;;;;;11.98;3.10;;;7.60;99.90;;;;;;5075649;28;20072;-72
2023/01/08 08:04:29;;;;;;;11.63;3.00;;;7.50;99.90;;;;;;5034912;28;20047;-72
2023/01/08 08:06:55;;;;;;;9.55;2.92;;;7.60;99.90;;;;;;5051435;28;20044;-73
2023/01/08 08:09:21;;;;;;;10.27;3.40;;;7.50;99.90;;;;;;5046391;28;20113;-72
2023/01/08 08:11:47;;;;;;;8.70;3.40;;;7.50;99.90;;;;;;5060412;28;20261;-73
2023/01/08 08:14:12;;;;;;;9.20;3.33;;;7.50;99.90;;;;;;5042373;28;20059;-72
2023/01/08 08:16:38;;;;;;;12.07;3.40;;;7.80;99.90;;;;;;5034400;28;20054;-73
2023/01/08 08:19:04;;;;;;;11.10;3.53;;;7.70;99.90;;;;;;5035835;28;20086;-72
2023/01/08 08:21:30;;;;;;;13.50;3.47;;;7.40;99.90;;;;;;5031998;28;20202;-73
2023/01/08 08:23:56;;;;;;;12.27;3.35;;;7.50;99.90;;;;;;5066642;28;20047;-72
2023/01/08 08:26:22;;;;;;;12.10;3.38;;;7.40;99.90;;;;;;5043890;28;20040;-71
2023/01/08 08:28:48;;;;;;;11.13;3.35;;;7.40;99.90;;;;;;5058620;28;20040;-72
2023/01/08 08:31:14;;;;;;;13.68;3.45;;;7.40;99.90;;;;;;5048520;28;20112;-73
2023/01/08 08:33:40;;;;;;;10.25;3.10;;;7.40;99.90;;;;;;5048768;28;20039;-73
2023/01/08 08:36:07;;;;;;;11.13;2.90;;;7.90;99.90;;;;;;5044875;28;20505;-73
2023/01/08 08:38:33;;;;;;;11.90;3.05;;;7.40;99.90;;;;;;5046629;28;20044;-72
2023/01/08 08:40:58;;;;;;;9.50;2.35;;;7.40;99.90;;;;;;5043167;28;20105;-72
2023/01/08 08:43:24;;;;;;;12.15;2.63;;;7.40;99.90;;;;;;5045997;28;20196;-72
2023/01/08 08:45:50;;;;;;;12.93;2.70;;;7.40;99.90;;;;;;5064773;28;20040;-72
2023/01/08 08:48:16;;;;;;;11.50;2.60;;;7.40;99.90;;;;;;5064685;28;20058;-72
2023/01/08 08:50:42;;;;;;;14.73;2.95;;;7.40;99.90;;;;;;5062549;28;20047;-72
2023/01/08 08:53:09;;;;;;;8.88;2.17;;;7.40;99.90;;;;;;5047154;28;20160;-72
2023/01/08 08:55:35;;;;;;;9.57;2.55;;;7.40;99.90;;;;;;5049524;28;20073;-72
2023/01/08 08:58:06;;;;;;;10.68;2.33;;;7.40;99.90;;;;;;5065825;28;20048;-72
2023/01/08 09:00:32;;;;;;;11.40;2.13;;;7.40;99.90;;;;;;5032682;28;20091;-72
2023/01/08 09:02:58;;;;;;;13.55;2.67;;;7.80;99.90;;;;;;5056959;28;20481;-72
2023/01/08 09:05:24;;;;;;;10.00;2.10;;;7.40;99.90;;;;;;5044090;28;20059;-73
2023/01/08 09:07:50;;;;;;;7.03;2.08;;;7.50;99.90;;;;;;5054927;28;20212;-70
2023/01/08 09:10:16;;;;;;;7.88;1.83;;;7.50;99.90;;;;;;5026392;28;20592;-72
2023/01/08 09:12:41;;;;;;;10.48;2.08;;;7.50;99.90;;;;;;5039777;28;20040;-72
2023/01/08 09:15:08;;;;;;;13.68;2.47;;;7.50;99.90;;;;;;5028566;28;22091;-72
2023/01/08 09:17:35;;;;;;;13.57;2.10;;;7.50;99.90;;;;;;5044783;28;20782;-73
2023/01/08 09:20:02;;;;;;;8.80;2.42;;;7.60;99.90;;;;;;5059169;28;20052;-72
2023/01/08 09:22:28;;;;;;;11.20;2.20;;;7.60;99.90;;;;;;5060454;28;20040;-74
2023/01/08 09:24:54;;;;;;;8.43;2.10;;;7.60;99.90;;;;;;5019255;28;20064;-71
2023/01/08 09:27:20;;;;;;;8.23;2.20;;;7.60;99.90;;;;;;5056145;28;20102;-70
2023/01/08 09:29:45;;;;;;;12.88;2.00;;;7.60;99.90;;;;;;5019193;28;20053;-71
2023/01/08 09:32:11;;;;;;;7.72;1.75;;;7.70;99.90;;;;;;5040295;28;20052;-72
2023/01/08 09:34:37;;;;;;;11.10;2.40;;;7.70;99.90;;;;;;5039497;28;20416;-71
2023/01/08 09:37:03;;;;;;;10.52;1.95;;;7.70;99.90;;;;;;5023526;28;20051;-72
2023/01/08 09:39:30;;;;;;;9.18;2.17;;;7.70;99.90;;;;;;5054316;28;20051;-75
2023/01/08 09:41:57;;;;;;;16.40;2.63;;;7.70;99.90;;;;;;5037252;28;20071;-74
2023/01/08 09:44:31;;;;;;;12.18;2.25;;;7.90;99.90;;;;;;5043377;28;20462;-69
2023/01/08 09:46:58;;;;;;;13.02;2.05;;;7.80;99.90;;;;;;5055377;28;20047;-69
2023/01/08 09:49:31;;;;;;;7.50;2.05;;;7.80;99.90;;;;;;5056646;28;20050;-73
2023/01/08 09:51:58;;;;;;;13.90;2.47;;;7.80;99.90;;;;;;5023552;28;20084;-73
2023/01/08 09:54:26;;;;;;;13.63;2.05;;;7.90;99.90;;;;;;5065745;28;20040;-74
2023/01/08 09:56:52;;;;;;;9.45;1.52;;;7.80;99.90;;;;;;5064497;28;20513;-75
2023/01/08 09:59:18;;;;;;;14.20;2.25;;;7.90;99.90;;;;;;5048460;28;20044;-76
2023/01/08 10:01:46;;;;;;;11.32;1.77;;;7.90;99.90;;;;;;5034009;28;20130;-71
2023/01/08 10:04:22;;;;;;;8.05;1.70;;;7.90;99.90;;;;;;5067573;28;20040;-73
2023/01/08 10:07:10;;;;;;;8.15;1.58;;;7.90;99.90;;;;;;5029642;28;20130;-72
2023/01/08 10:09:36;;;;;;;9.27;1.70;;;7.90;99.90;;;;;;5045729;28;20062;-75
2023/01/08 10:12:05;;;;;;;10.05;1.80;;;8.00;99.90;;;;;;5039488;28;20056;-71
2023/01/08 10:14:41;;;;;;;9.88;1.88;;;8.00;99.90;;;;;;5047742;28;20193;-71
2023/01/08 10:17:30;;;;;;;12.40;2.00;;;8.00;99.90;;;;;;5028361;28;20641;-71
2023/01/08 10:19:56;;;;;;;13.27;1.67;;;8.00;99.90;;;;;;5034664;28;20597;-71
2023/01/08 10:22:31;;;;;;;11.77;2.10;;;8.10;99.90;;;;;;5048051;28;20064;-71
2023/01/08 10:25:12;;;;;;;8.63;1.52;;;8.10;99.90;;;;;;5063078;28;20114;-70
2023/01/08 10:27:52;;;;;;;6.35;1.60;;;8.20;99.90;;;;;;5033551;28;20052;-71
2023/01/08 10:30:22;;;;;;;10.63;1.77;;;8.10;99.90;;;;;;5062794;28;20994;-71
2023/01/08 10:32:54;;;;;;;13.43;1.98;;;8.10;99.90;;;;;;5059540;28;20076;-72
2023/01/08 10:35:29;;;;;;;11.52;2.13;;;8.10;99.90;;;;;;5045328;28;20154;-71
2023/01/08 10:37:55;;;;;;;11.95;1.90;;;8.20;99.90;;;;;;5062211;28;20075;-71
2023/01/08 10:40:35;;;;;;;12.07;2.10;;;8.10;99.90;;;;;;5042016;28;20047;-72
2023/01/08 10:43:28;;;;;;;14.57;2.15;;;8.20;99.90;;;;;;5045125;28;20051;-72
2023/01/08 10:45:57;;;;;;;14.13;2.53;;;8.10;99.90;;;;;;5063093;28;20061;-71
2023/01/08 10:48:28;;;;;;;11.30;1.80;;;8.20;99.90;;;;;;5051221;28;20056;-71
2023/01/08 10:51:04;;;;;;;14.20;1.80;;;8.20;99.90;;;;;;5042023;28;20048;-72
2023/01/08 10:53:30;;;;;;;10.60;1.70;;;8.20;99.90;;;;;;5044243;28;20056;-71
2023/01/08 10:56:00;;;;;;;12.85;2.15;;;8.20;99.90;;;;;;5057568;28;20048;-72
2023/01/08 10:58:29;;;;;;;16.10;1.80;;;8.20;99.90;;;;;;5049833;28;20131;-72
2023/01/08 11:01:07;;;;;;;19.42;2.78;;;8.20;99.90;;;;;;5047319;28;20143;-71
2023/01/08 11:03:36;;;;;;;10.75;1.85;;;8.20;99.90;;;;;;5051079;28;20055;-72
2023/01/08 11:06:15;;;;;;;14.27;1.92;;;8.20;99.90;;;;;;5063758;28;20055;-72
2023/01/08 11:08:52;;;;;;;9.05;1.70;;;8.20;99.90;;;;;;5043179;28;20055;-72
2023/01/08 11:11:18;;;;;;;13.10;2.22;;;8.30;99.90;;;;;;5047019;28;20051;-72
2023/01/08 11:13:58;;;;;;;9.95;2.05;;;8.30;99.90;;;;;;5064151;28;20494;-72
2023/01/08 11:16:35;;;;;;;9.38;2.08;;;8.20;99.90;;;;;;5047387;28;20048;-70
2023/01/08 11:19:01;;;;;;;12.25;2.35;;;8.30;99.90;;;;;;5029066;28;20040;-71
2023/01/08 11:21:31;;;;;;;13.02;2.47;;;8.70;99.90;;;;;;5028443;28;20044;-72
2023/01/08 11:24:17;;;;;;;15.27;2.60;;;8.30;99.90;;;;;;5042181;28;20052;-72
2023/01/08 11:26:50;;;;;;;10.88;2.72;;;8.40;99.90;;;;;;5046455;28;20074;-72
2023/01/08 11:29:43;;;;;;;11.70;2.20;;;8.40;99.90;;;;;;5038978;28;20152;-71
2023/01/08 11:32:33;;;;;;;10.18;2.22;;;8.40;99.90;;;;;;5023016;28;20056;-71
2023/01/08 11:35:14;;;;;;;15.93;2.47;;;8.40;99.90;;;;;;5038775;28;20037;-71
2023/01/08 11:37:48;;;;;;;12.53;2.30;;;8.40;99.90;;;;;;5042094;28;20080;-71
2023/01/08 11:40:16;;;;;;;16.38;2.20;;;8.50;99.90;;;;;;5028663;28;20075;-72
2023/01/08 11:43:16;;;;;;;10.85;2.10;;;8.50;99.90;;;;;;5070728;28;20047;-72
2023/01/08 11:46:03;;;;;;;13.18;2.25;;;8.50;99.90;;;;;;5074509;28;20040;-72
2023/01/08 11:48:48;;;;;;;13.40;2.22;;;8.50;99.90;;;;;;5047464;28;20082;-72
2023/01/08 11:51:19;;;;;;;16.90;2.40;;;8.50;99.90;;;;;;5044286;28;20093;-71
2023/01/08 11:54:21;;;;;;;14.15;2.03;;;8.50;99.90;;;;;;5078231;28;20748;-72
2023/01/08 11:57:02;;;;;;;12.95;2.13;;;8.50;99.90;;;;;;5077196;28;20568;-71
2023/01/08 11:59:58;;;;;;;11.82;2.17;;;8.50;99.90;;;;;;5078584;28;20192;-70
2023/01/08 12:02:44;;;;;;;21.02;2.17;;;8.50;99.90;;;;;;5057318;28;20155;-72
2023/01/08 12:05:36;;;;;;;14.85;1.95;;;8.60;99.90;;;;;;5077757;28;20372;-73
2023/01/08 12:08:49;;;;;;;10.27;1.92;;;8.60;99.90;;;;;;5074444;28;20036;-72
2023/01/08 12:11:27;;;;;;;13.05;1.90;;;8.60;99.90;;;;;;4999075;28;20057;-71
2023/01/08 12:14:13;;;;;;;10.32;2.15;;;8.60;99.90;;;;;;5004056;28;20056;-72
2023/01/08 12:16:44;;;;;;;17.38;2.78;;;8.70;99.90;;;;;;5015881;28;20513;-72
2023/01/08 12:19:55;;;;;;;11.55;2.17;;;8.60;99.90;;;;;;5039238;28;20191;-72
2023/01/08 12:22:33;;;;;;;13.15;2.42;;;8.70;99.90;;;;;;5035085;28;20155;-72
2023/01/08 12:25:18;;;;;;;14.10;2.60;;;8.90;99.90;;;;;;5022482;28;20060;-71
2023/01/08 12:27:53;;;;;;;12.02;2.53;;;8.60;99.90;;;;;;5053020;28;20056;-71
2023/01/08 12:30:37;;;;;;;12.77;2.60;;;8.70;99.90;;;;;;5056459;28;20068;-70
2023/01/08 12:33:33;;;;;;;13.40;2.80;;;8.70;99.90;;;;;;5040357;28;20060;-71
2023/01/08 12:36:04;;;;;;;11.90;2.28;;;9.00;99.90;;;;;;5047798;28;20048;-72
2023/01/08 12:38:37;;;;;;;14.52;2.63;;;8.70;99.90;;;;;;5040786;28;20056;-71
2023/01/08 12:41:09;;;;;;;11.43;2.58;;;8.60;99.90;;;;;;5049375;28;20076;-71
2023/01/08 12:44:08;;;;;;;15.23;2.75;;;8.70;99.90;;;;;;5035779;28;20045;-71
2023/01/08 12:46:37;;;;;;;11.50;2.28;;;8.70;99.90;;;;;;5052929;28;20048;-71
2023/01/08 12:49:05;;;;;;;8.15;2.40;;;8.70;99.90;;;;;;5055273;28;20059;-72
2023/01/08 12:52:00;;;;;;;14.52;2.60;;;8.70;99.90;;;;;;5045842;28;20044;-71
2023/01/08 12:54:32;;;;;;;10.45;2.03;;;8.70;99.90;;;;;;5038429;28;20106;-71
2023/01/08 12:57:06;;;;;;;10.18;2.20;;;8.70;99.90;;;;;;5036524;28;20140;-72
2023/01/08 12:59:40;;;;;;;11.50;2.47;;;8.70;99.90;;;;;;5022685;28;20052;-72
2023/01/08 13:02:06;;;;;;;18.50;2.75;;;8.70;99.90;;;;;;5037279;28;20044;-72
2023/01/08 13:04:43;;;;;;;17.50;2.47;;;8.70;99.90;;;;;;5050617;28;20044;-72
2023/01/08 13:07:34;;;;;;;18.20;2.90;;;8.80;99.90;;;;;;5033028;28;20480;-70
2023/01/08 13:10:38;;;;;;;10.25;2.58;;;8.70;99.90;;;;;;5050995;28;20854;-70